createdAt,value
2022-09-02T04:00:38.862Z,99.90
2022-09-02T04:03:10.649Z,99.90
2022-09-02T04:05:46.070Z,99.90
2022-09-02T04:08:17.751Z,99.90
2022-09-02T04:10:49.430Z,99.90
2022-09-02T04:16:06.405Z,99.90
2022-09-02T04:18:42.416Z,99.90
2022-09-02T04:21:14.187Z,99.90
2022-09-02T04:23:45.862Z,99.90
2022-09-02T04:26:17.705Z,99.90
2022-09-02T04:28:49.519Z,99.90
2022-09-02T04:31:23.384Z,99.90
2022-09-02T04:33:55.122Z,99.90
2022-09-02T04:36:26.983Z,99.90
2022-09-02T04:39:02.389Z,99.90
2022-09-02T04:41:34.059Z,99.90
2022-09-02T04:44:05.790Z,99.90
2022-09-02T04:46:38.822Z,99.90
2022-09-02T04:49:10.575Z,99.90
2022-09-02T04:51:42.306Z,99.90
2022-09-02T04:54:14.003Z,99.90
2022-09-02T04:56:45.689Z,99.90
2022-09-02T04:59:17.360Z,99.90
2022-09-02T05:01:50.825Z,99.90
2022-09-02T05:04:22.670Z,99.90
2022-09-02T05:06:54.506Z,99.90
2022-09-02T05:09:26.209Z,99.90
2022-09-02T05:11:57.896Z,99.90
2022-09-02T05:14:30.947Z,99.90
2022-09-02T05:17:07.643Z,99.90
2022-09-02T05:19:39.699Z,99.90
2022-09-02T05:22:11.358Z,99.90
2022-09-02T05:24:43.068Z,99.90
2022-09-02T05:27:14.892Z,97.10
2022-09-02T05:29:46.740Z,83.20
2022-09-02T05:32:19.945Z,23.80
2022-09-02T05:34:51.823Z,13.80
2022-09-02T05:37:23.576Z,8.40
2022-09-02T05:39:55.317Z,98.30
2022-09-02T05:42:27.097Z,21.40
2022-09-02T05:44:58.842Z,13.10
2022-09-02T05:47:33.093Z,26.80
2022-09-02T05:50:05.587Z,46.60
2022-09-02T05:52:39.723Z,74.50
2022-09-02T05:55:11.496Z,26.20
2022-09-02T05:57:43.172Z,38.60
2022-09-02T06:00:17.893Z,10.10
2022-09-02T06:02:51.126Z,10.70
2022-09-02T06:05:22.874Z,1.00
2022-09-02T06:07:54.571Z,1.00
2022-09-02T06:10:26.250Z,1.00
2022-09-02T06:12:57.945Z,1.00
2022-09-02T06:15:29.684Z,1.00
2022-09-02T06:18:02.752Z,1.00
2022-09-02T06:20:34.459Z,1.00
2022-09-02T06:23:06.140Z,1.00
2022-09-02T06:25:37.878Z,71.80
2022-09-02T06:28:09.650Z,95.30
2022-09-02T06:30:43.745Z,99.90
2022-09-02T06:33:16.821Z,71.10
2022-09-02T06:35:48.598Z,99.90
2022-09-02T06:43:24.962Z,1.00
2022-09-02T06:48:30.276Z,1.00
2022-09-02T06:51:02.076Z,1.00
2022-09-02T06:53:33.761Z,1.00
2022-09-02T06:56:07.268Z,1.00
2022-09-02T06:58:38.984Z,1.00
2022-09-02T07:01:12.037Z,1.00
2022-09-02T07:03:46.474Z,1.00
2022-09-02T07:08:50.195Z,1.00
2022-09-02T07:11:23.332Z,1.00
2022-09-02T07:13:55.051Z,1.00
2022-09-02T07:16:27.393Z,1.00
2022-09-02T07:19:00.601Z,1.00
2022-09-02T07:21:32.288Z,1.00
2022-09-02T07:24:04.203Z,1.00
2022-09-02T07:26:35.928Z,1.00
2022-09-02T07:29:07.726Z,1.00
2022-09-02T07:31:40.838Z,1.00
2022-09-02T07:34:13.932Z,1.00
2022-09-02T07:36:45.630Z,1.00
2022-09-02T07:39:17.774Z,1.00
2022-09-02T07:41:50.499Z,1.00
2022-09-02T07:44:22.256Z,1.00
2022-09-02T07:46:53.951Z,1.00
2022-09-02T07:49:28.043Z,1.00
2022-09-02T07:51:59.870Z,1.00
2022-09-02T07:54:31.579Z,1.00
2022-09-02T07:57:03.298Z,1.00
2022-09-02T07:59:35.147Z,1.00
2022-09-02T08:02:06.904Z,1.00
2022-09-02T08:04:40.115Z,1.00
2022-09-02T08:07:11.796Z,1.00
2022-09-02T08:09:43.508Z,1.00
2022-09-02T08:12:17.779Z,1.00
2022-09-02T08:14:52.110Z,1.00
2022-09-02T08:17:23.810Z,1.00
2022-09-02T08:19:57.530Z,1.00
2022-09-02T08:25:06.668Z,1.00
2022-09-02T08:27:38.423Z,1.00
2022-09-02T08:30:10.715Z,1.00
2022-09-02T08:32:42.473Z,1.00
2022-09-02T08:35:15.514Z,1.00
2022-09-02T08:37:47.186Z,1.00
2022-09-02T08:40:19.966Z,1.00
2022-09-02T08:42:52.634Z,1.00
2022-09-02T08:45:25.489Z,1.00
2022-09-02T08:48:02.300Z,1.00
2022-09-02T08:50:35.365Z,1.00
2022-09-02T08:53:09.696Z,1.00
2022-09-02T08:55:44.468Z,1.00
2022-09-02T08:58:18.711Z,1.00
2022-09-02T09:00:53.392Z,1.00
2022-09-02T09:03:26.840Z,1.00
2022-09-02T09:06:03.494Z,1.00
2022-09-02T09:08:39.183Z,1.00
2022-09-02T09:11:14.800Z,1.00
2022-09-02T09:14:03.322Z,1.00
2022-09-02T09:16:38.934Z,1.00
2022-09-02T09:19:12.808Z,1.00
2022-09-02T09:21:45.886Z,1.00
2022-09-02T09:24:27.034Z,1.00
2022-09-02T09:26:58.698Z,1.00
2022-09-02T09:29:32.123Z,1.00
2022-09-02T09:32:04.025Z,1.00
2022-09-02T09:34:57.477Z,1.00
2022-09-02T09:37:36.287Z,1.00
2022-09-02T09:40:28.873Z,1.00
2022-09-02T09:43:14.291Z,1.00
2022-09-02T09:45:46.918Z,1.00
2022-09-02T09:48:21.051Z,1.00
2022-09-02T09:51:11.274Z,1.00
2022-09-02T09:53:44.399Z,1.00
2022-09-02T09:56:31.569Z,1.00
2022-09-02T09:59:03.308Z,1.00
2022-09-02T10:04:20.844Z,1.00
2022-09-02T10:06:57.984Z,1.00
2022-09-02T10:09:32.267Z,1.00
2022-09-02T10:12:04.883Z,1.00
2022-09-02T10:14:39.279Z,1.00
2022-09-02T10:17:24.732Z,1.00
2022-09-02T10:19:59.336Z,1.00
2022-09-02T10:22:59.945Z,1.00
2022-09-02T10:25:38.720Z,1.00
2022-09-02T10:28:16.720Z,1.00
2022-09-02T10:30:53.224Z,1.00
2022-09-02T10:33:36.924Z,1.00
2022-09-02T10:36:17.180Z,1.00
2022-09-02T10:38:50.749Z,1.00
2022-09-02T10:41:33.798Z,1.00
2022-09-02T10:44:21.748Z,1.00
2022-09-02T10:46:58.501Z,1.00
2022-09-02T10:49:50.279Z,1.00
2022-09-02T10:52:37.368Z,1.00
2022-09-02T10:55:16.775Z,1.00
2022-09-02T10:57:51.078Z,1.00
2022-09-02T11:00:22.870Z,1.00
2022-09-02T11:02:55.746Z,1.00
2022-09-02T11:05:28.264Z,1.00
2022-09-02T11:08:02.914Z,1.00
2022-09-02T11:10:36.085Z,1.00
2022-09-02T11:13:11.983Z,1.00
2022-09-02T11:15:45.780Z,1.00
2022-09-02T11:18:20.180Z,1.00
2022-09-02T11:20:54.606Z,1.00
2022-09-02T11:23:29.363Z,1.00
2022-09-02T11:26:02.374Z,1.00
2022-09-02T11:28:38.353Z,1.00
2022-09-02T11:31:12.644Z,1.00
2022-09-02T11:33:49.373Z,1.00
2022-09-02T11:36:21.071Z,1.00
2022-09-02T11:38:54.479Z,1.00
2022-09-02T11:41:35.835Z,1.00
2022-09-02T11:44:41.227Z,1.00
2022-09-02T11:47:41.905Z,1.00
2022-09-02T11:50:35.784Z,1.00
2022-09-02T11:53:28.488Z,1.00
2022-09-02T11:56:02.956Z,1.00
2022-09-02T11:58:36.414Z,1.00
2022-09-02T12:01:26.773Z,1.00
2022-09-02T12:07:26.790Z,1.00
2022-09-02T12:10:01.636Z,1.00
2022-09-02T12:13:01.809Z,1.00
2022-09-02T12:15:34.390Z,1.00
2022-09-02T12:18:10.972Z,1.00
2022-09-02T12:21:15.931Z,1.00
2022-09-02T12:24:19.315Z,1.00
2022-09-02T12:27:08.527Z,1.00
2022-09-02T12:29:40.216Z,1.00
2022-09-02T12:34:55.816Z,1.00
2022-09-02T12:37:49.760Z,1.00
2022-09-02T12:40:32.102Z,1.00
2022-09-02T12:43:05.865Z,1.00
2022-09-02T12:45:40.970Z,1.00
2022-09-02T12:48:13.402Z,1.00
2022-09-02T12:50:53.826Z,1.00
2022-09-02T12:53:37.429Z,1.00
2022-09-02T12:56:18.815Z,1.00
2022-09-02T12:58:52.798Z,1.00
2022-09-02T13:01:30.001Z,1.00
2022-09-02T13:04:17.198Z,1.00
2022-09-02T13:07:40.565Z,1.00
2022-09-02T13:10:32.452Z,1.00
2022-09-02T13:13:33.533Z,1.00
2022-09-02T13:16:18.720Z,1.00
2022-09-02T13:19:28.049Z,1.00
2022-09-02T13:22:23.749Z,1.00
2022-09-02T13:25:29.149Z,1.00
2022-09-02T13:28:23.950Z,1.00
2022-09-02T13:31:05.376Z,1.00
2022-09-02T13:33:41.920Z,1.00
2022-09-02T13:36:22.625Z,1.00
2022-09-02T13:38:55.708Z,1.00
2022-09-02T13:41:29.063Z,1.00
2022-09-02T13:44:07.807Z,1.00
2022-09-02T13:46:43.913Z,1.00
2022-09-02T13:49:19.897Z,1.00
2022-09-02T13:51:52.809Z,1.00
2022-09-02T13:54:30.915Z,1.00
2022-09-02T13:57:03.866Z,1.00
2022-09-02T13:59:37.210Z,1.00
2022-09-02T14:02:26.256Z,1.00
2022-09-02T14:04:59.511Z,1.00
2022-09-02T14:07:32.381Z,1.00
2022-09-02T14:10:07.267Z,1.00
2022-09-02T14:12:39.487Z,1.00
2022-09-02T14:15:13.617Z,1.00
2022-09-02T14:17:45.306Z,1.00
2022-09-02T14:20:18.861Z,1.00
2022-09-02T14:22:54.036Z,1.00
2022-09-02T14:25:29.668Z,1.00
2022-09-02T14:28:01.432Z,1.00
2022-09-02T14:30:34.337Z,1.00
2022-09-02T14:33:19.575Z,1.00
2022-09-02T14:35:58.461Z,1.00
2022-09-02T14:38:32.599Z,1.00
2022-09-02T14:41:10.069Z,1.00
2022-09-02T14:43:43.658Z,1.00
2022-09-02T14:46:24.942Z,1.00
2022-09-02T14:48:59.373Z,1.00
2022-09-02T14:51:38.295Z,1.00
2022-09-02T14:54:10.034Z,1.00
2022-09-02T14:56:47.638Z,1.00
2022-09-02T14:59:19.642Z,1.00
2022-09-02T15:01:51.984Z,1.00
2022-09-02T15:04:23.801Z,1.00
2022-09-02T15:06:55.501Z,1.00
2022-09-02T15:09:27.184Z,1.00
2022-09-02T15:12:02.773Z,1.00
2022-09-02T15:14:34.795Z,1.00
2022-09-02T15:17:08.740Z,1.00
2022-09-02T15:19:40.441Z,1.00
2022-09-02T15:22:12.208Z,1.00
2022-09-02T15:24:43.901Z,1.00
2022-09-02T15:27:17.331Z,1.00
2022-09-02T15:29:53.379Z,34.80
2022-09-02T15:32:25.792Z,78.90
2022-09-02T15:34:57.501Z,1.00
2022-09-02T15:37:29.191Z,1.00
2022-09-02T15:40:01.056Z,1.00
2022-09-02T15:42:35.222Z,1.00
2022-09-02T15:45:08.024Z,1.00
2022-09-02T15:47:39.702Z,1.00
2022-09-02T15:50:11.402Z,1.00
2022-09-02T15:52:45.972Z,1.00
2022-09-02T15:55:17.689Z,1.00
2022-09-02T15:57:50.752Z,1.00
2022-09-02T16:00:22.461Z,1.00
2022-09-02T16:02:54.250Z,1.00
2022-09-02T16:05:26.029Z,1.00
2022-09-02T16:07:57.725Z,1.00
2022-09-02T16:10:29.449Z,1.00
2022-09-02T16:13:02.493Z,1.00
2022-09-02T16:15:34.742Z,1.00
2022-09-02T16:18:06.433Z,1.00
2022-09-02T16:20:38.160Z,1.00
2022-09-02T16:23:09.841Z,1.00
2022-09-02T16:25:41.532Z,1.00
2022-09-02T16:28:14.569Z,1.00
2022-09-02T16:30:46.483Z,1.00
2022-09-02T16:33:19.513Z,1.00
2022-09-02T16:35:51.226Z,1.00
2022-09-02T16:38:22.926Z,1.00
2022-09-02T16:40:55.637Z,1.00
2022-09-02T16:43:30.257Z,1.00
2022-09-02T16:46:02.038Z,1.00
2022-09-02T16:48:33.787Z,1.00
2022-09-02T16:51:05.782Z,1.00
2022-09-02T16:53:37.927Z,1.00
2022-09-02T16:56:12.134Z,1.00
2022-09-02T16:58:45.174Z,1.00
2022-09-02T17:01:16.935Z,1.00
2022-09-02T17:03:49.094Z,1.00
2022-09-02T17:06:20.826Z,1.00
2022-09-02T17:08:52.534Z,1.00
2022-09-02T17:11:25.068Z,1.00
2022-09-02T17:13:58.949Z,1.00
2022-09-02T17:16:31.727Z,1.00
2022-09-02T17:19:03.601Z,1.00
2022-09-02T17:21:36.064Z,1.00
2022-09-02T17:24:08.297Z,1.00
2022-09-02T17:26:40.756Z,1.00
2022-09-02T17:29:37.927Z,1.00
2022-09-02T17:32:06.845Z,1.00
2022-09-02T17:34:38.699Z,1.00
2022-09-02T17:37:10.390Z,1.00
2022-09-02T17:39:42.174Z,1.00
2022-09-02T17:42:13.977Z,1.00
2022-09-02T17:44:47.035Z,1.00
2022-09-02T17:47:19.610Z,1.00
2022-09-02T17:49:51.445Z,1.00
2022-09-02T17:52:23.887Z,1.00
2022-09-02T17:54:56.134Z,1.00
2022-09-02T17:57:42.361Z,1.00
2022-09-02T18:00:16.951Z,1.00
2022-09-02T18:02:59.115Z,1.00
2022-09-02T18:05:33.071Z,1.00
2022-09-02T18:08:05.741Z,54.00
2022-09-02T18:13:10.910Z,1.00
2022-09-02T18:15:46.892Z,1.00
2022-09-02T18:18:18.589Z,1.00
2022-09-02T18:20:52.926Z,1.00
2022-09-02T18:23:49.460Z,1.00
2022-09-02T18:26:24.568Z,1.00
2022-09-02T18:29:04.497Z,1.00
2022-09-02T18:31:41.001Z,1.00
2022-09-02T18:34:21.875Z,1.00
2022-09-02T18:36:56.492Z,1.00
2022-09-02T18:39:47.938Z,1.00
2022-09-02T18:42:25.180Z,1.00
2022-09-02T18:45:02.696Z,1.00
2022-09-02T18:47:38.705Z,1.00
2022-09-02T18:50:22.107Z,1.00
2022-09-02T18:53:02.086Z,1.00
2022-09-02T18:55:34.713Z,1.00
2022-09-02T18:58:09.472Z,1.00
2022-09-02T19:00:43.273Z,1.00
2022-09-02T19:03:16.369Z,1.00
2022-09-02T19:05:48.076Z,1.00
2022-09-02T19:08:20.293Z,1.00
2022-09-02T19:10:56.217Z,1.00
2022-09-02T19:13:27.986Z,1.00
2022-09-02T19:16:02.121Z,1.00
2022-09-02T19:18:37.805Z,1.00
2022-09-02T19:21:09.650Z,1.00
2022-09-02T19:23:41.353Z,1.00
2022-09-02T19:26:13.042Z,1.00
2022-09-02T19:28:44.734Z,1.00
2022-09-02T19:31:19.682Z,1.00
2022-09-02T19:33:52.879Z,1.00
2022-09-02T19:36:26.351Z,1.00
2022-09-02T19:39:03.175Z,1.00
2022-09-02T19:41:34.873Z,1.00
2022-09-02T19:44:06.574Z,1.00
2022-09-02T19:49:31.308Z,1.00
2022-09-02T19:52:03.212Z,1.00
2022-09-02T19:54:34.910Z,1.00
2022-09-02T19:57:06.654Z,1.00
2022-09-02T19:59:38.364Z,1.00
2022-09-02T20:02:10.087Z,1.00
2022-09-02T20:04:43.330Z,1.00
2022-09-02T20:07:15.061Z,1.00
2022-09-02T20:09:46.846Z,1.00
2022-09-02T20:12:19.409Z,1.00
2022-09-02T20:14:51.100Z,1.00
2022-09-02T20:17:27.636Z,1.00
2022-09-02T20:20:00.769Z,1.00
2022-09-02T20:22:32.497Z,1.00
2022-09-02T20:25:04.793Z,1.00
2022-09-02T20:27:45.798Z,1.00
2022-09-02T20:30:18.201Z,1.00
2022-09-02T20:32:55.241Z,1.00
2022-09-02T20:35:50.405Z,1.00
2022-09-02T20:38:36.727Z,1.00
2022-09-02T20:41:09.441Z,1.00
2022-09-02T20:44:02.391Z,1.00
2022-09-02T20:46:45.587Z,1.00
2022-09-02T20:49:28.283Z,1.00
2022-09-02T20:52:04.585Z,1.00
2022-09-02T20:54:39.592Z,1.00
2022-09-02T20:57:21.975Z,1.00
2022-09-02T20:59:58.774Z,1.00
2022-09-02T21:02:32.740Z,1.00
2022-09-02T21:05:07.544Z,1.00
2022-09-02T21:07:41.398Z,1.00
2022-09-02T21:10:19.149Z,1.00
2022-09-02T21:12:52.274Z,1.00
2022-09-02T21:15:27.509Z,1.00
2022-09-02T21:18:02.055Z,1.00
2022-09-02T21:20:41.776Z,1.00
2022-09-02T21:23:17.911Z,1.00
2022-09-02T21:25:51.923Z,1.00
2022-09-02T21:28:25.993Z,1.00
2022-09-02T21:31:02.052Z,1.00
2022-09-02T21:33:33.765Z,1.00
2022-09-02T21:36:05.798Z,1.00
2022-09-02T21:38:40.765Z,1.00
2022-09-02T21:41:25.163Z,1.00
2022-09-02T21:44:01.989Z,1.00
2022-09-02T21:46:37.816Z,1.00
2022-09-02T21:49:13.786Z,1.00
2022-09-02T21:51:47.923Z,1.00
2022-09-02T21:54:29.726Z,1.00
2022-09-02T21:57:13.155Z,1.00
2022-09-02T21:59:58.818Z,1.00
